Flight Track Log - Related Links

Times and Time Zones

All times are in EDT time to prevent confusion due to time zone crossing. See the N595WP flight status page for this flight to view local times or setup timezone preferences in your user account.

Time Position Orientation Groundspeed Altitude Reporting Facility
EDT Latitude Longitude Course Direction KTS MPH feet Rate Location/Type
Sun 02:39:15 PM 30.5947 -91.1616 North  Level FlightAware Approximate
Sun 02:40:15 PM 30.6468 -91.1667 North  Level FlightAware Approximate
Sun 02:41:15 PM 30.6985 -91.1746 12° North  Level FlightAware Approximate
Sun 02:42:15 PM 30.7502 -91.1845 27° Northeast  Level FlightAware Approximate
Sun 02:46:26 PM 30.8150 -91.1461 354° North 163 188 4,900  Level Houston Center
Sun 02:47:26 PM 30.8525 -91.1508 350° North 157 181 5,300 450 Climbing Houston Center
Sun 02:48:26 PM 30.9006 -91.1603 347° North 162 186 5,800 500 Climbing Houston Center
Sun 02:49:26 PM 30.9425 -91.1719 352° North 162 186 6,300 450 Climbing Houston Center
Sun 02:50:26 PM 30.9861 -91.1792 355° North 167 192 6,700 500 Climbing Houston Center
Sun 02:51:26 PM 31.0281 -91.1836 350° North 161 185 7,300 500 Climbing Houston Center
Sun 02:52:26 PM 31.0739 -91.1933 350° North 161 185 7,700 450 Climbing Houston Center
Sun 02:53:26 PM 31.1178 -91.2028 352° North 161 185 8,200 500 Climbing Houston Center
Sun 02:54:26 PM 31.1617 -91.2097 349° North 161 185 8,700 450 Climbing Houston Center
Sun 02:55:26 PM 31.2056 -91.2194 345° North 161 185 9,100 400 Climbing Houston Center
Sun 02:56:26 PM 31.2514 -91.2336 351° North 156 180 9,500 400 Climbing Houston Center
Sun 02:57:26 PM 31.2889 -91.2408 350° North 156 180 9,900 250 Climbing Houston Center
Sun 02:58:26 PM 31.3369 -91.2503 326° Northwest 163 188 10,000 -50 Climbing Houston Center
Sun 02:59:26 PM 31.3706 -91.2769 219° Southwest 157 181 9,800 -350 Descending Houston Center
Sun 03:00:26 PM 31.3372 -91.3086 190° South 103 119 9,300 -450 Descending Houston Center
Sun 03:01:26 PM 31.2892 -91.3186 178° South 120 138 8,900 -550 Descending Houston Center
Sun 03:02:26 PM 31.2392 -91.3164 171° South 151 174 8,200 -700 Descending Houston Center
Sun 03:03:26 PM 31.1869 -91.3067 173° South 170 196 7,500 -650 Descending Houston Center
Sun 03:04:26 PM 31.1411 -91.2997 175° South 180 207 6,900 -550 Descending Houston Center
Sun 03:05:26 PM 31.0908 -91.2950 170° South 180 207 6,400 -600 Descending Houston Center
Sun 03:06:26 PM 31.0450 -91.2856 173° South 180 207 5,700 -600 Descending Houston Center
Sun 03:07:26 PM 30.9928 -91.2783 172° South 180 207 5,200 2,150 Descending Houston Center
Sun 03:08:26 PM 30.9489 -91.2714 173° South 180 207 10,000 -550 Climbing Houston Center
Sun 03:09:26 PM 30.8967 -91.2642 175° South 180 207 4,100  Descending Houston Center
Sun 03:10:26 PM 30.8508 -91.2594 173° South 180 207 10,000 2,950 Climbing Houston Center
Sun 03:11:26 PM 30.8028 -91.2525 180° South 180 207 10,000  Level Houston Center
Sun 03:12:26 PM 30.7944 -91.2525 360° North 180 207 10,000  Level Houston Center
Sun 03:13:26 PM 30.7944 -91.2525 360° North 180 207 10,000  Level Houston Center
Sun 03:14:26 PM 30.7944 -91.2525 360° North 180 207 10,000  Level Houston Center

Login

Don't have an account? Register now (free) for customized features, flight alerts, and more!